createdAt,value
2019-01-24T00:06:51.586Z,93401.78
2019-01-24T00:10:34.583Z,93415.66
2019-01-24T00:14:17.608Z,93417.45
2019-01-24T00:21:11.136Z,93424.20
2019-01-24T00:28:05.361Z,93436.27
2019-01-24T00:31:29.351Z,93442.41
2019-01-24T00:34:53.378Z,93438.02
2019-01-24T00:41:47.080Z,93446.30
2019-01-24T00:45:11.362Z,93446.73
2019-01-24T00:48:28.595Z,93450.55
2019-01-24T00:52:11.734Z,93450.29
2019-01-24T00:55:35.700Z,93447.97
2019-01-24T00:58:59.684Z,93459.19
2019-01-24T01:06:25.813Z,93469.62
2019-01-24T01:09:49.788Z,93465.27
2019-01-24T01:20:53.734Z,93478.89
2019-01-24T01:24:17.737Z,93493.36
2019-01-24T01:28:01.123Z,93497.41
2019-01-24T01:34:55.010Z,93510.84
2019-01-24T01:42:01.922Z,93514.99
2019-01-24T01:45:25.971Z,93516.86
2019-01-24T01:48:42.884Z,93520.95
2019-01-24T01:52:06.889Z,93525.08
2019-01-24T01:55:30.934Z,93520.27
2019-01-24T01:58:54.907Z,93521.81
2019-01-24T02:02:18.887Z,93521.71
2019-01-24T02:05:42.931Z,93521.19
2019-01-24T02:13:10.621Z,93532.95
2019-01-24T02:16:34.846Z,93521.03
2019-01-24T02:19:58.843Z,93530.91
2019-01-24T02:23:22.825Z,93536.41
2019-01-24T02:26:46.829Z,93540.23
2019-01-24T02:30:31.690Z,93542.95
2019-01-24T02:33:55.699Z,93548.13
2019-01-24T02:40:48.794Z,93544.92
2019-01-24T02:44:12.800Z,93553.75
2019-01-24T02:47:29.284Z,93564.78
2019-01-24T02:50:53.259Z,93567.11
2019-01-24T02:54:17.517Z,93567.72
2019-01-24T02:57:41.816Z,93568.50
2019-01-24T03:01:24.909Z,93580.23
2019-01-24T03:04:48.882Z,93578.28
2019-01-24T03:08:12.859Z,93587.80
2019-01-24T03:11:36.934Z,93586.95
2019-01-24T03:18:35.547Z,93584.64
2019-01-24T03:25:42.725Z,93597.94
2019-01-24T03:29:06.705Z,93597.16
2019-01-24T03:32:30.676Z,93602.09
2019-01-24T03:35:54.643Z,93598.84
2019-01-24T03:42:48.038Z,93611.36
2019-01-24T03:46:12.013Z,93611.95
2019-01-24T03:53:05.328Z,93608.38
2019-01-24T04:00:33.022Z,93622.40
2019-01-24T04:03:56.995Z,93627.78
2019-01-24T04:07:21.204Z,93632.26
2019-01-24T04:10:45.180Z,93638.36
2019-01-24T04:14:09.480Z,93646.40
2019-01-24T04:17:14.103Z,93654.98
2019-01-24T04:20:57.345Z,93653.23
2019-01-24T04:24:21.621Z,93654.79
2019-01-24T04:27:45.604Z,93658.62
2019-01-24T04:31:09.587Z,93651.14
2019-01-24T04:34:33.564Z,93656.40
2019-01-24T04:37:57.857Z,93667.63
2019-01-24T04:41:21.840Z,93677.08
2019-01-24T04:44:45.820Z,93674.23
2019-01-24T04:48:02.436Z,93681.50
2019-01-24T04:51:26.726Z,93685.47
2019-01-24T04:54:50.706Z,93687.32
2019-01-24T05:02:01.436Z,93689.47
2019-01-24T05:05:28.001Z,93692.85
2019-01-24T05:08:51.414Z,93698.13
2019-01-24T05:12:34.700Z,93703.12
2019-01-24T05:19:48.778Z,93704.35
2019-01-24T05:23:13.033Z,93713.18
2019-01-24T05:26:37.012Z,93711.03
2019-01-24T05:30:00.994Z,93717.38
2019-01-24T05:37:07.921Z,93733.05
2019-01-24T05:40:32.188Z,93734.03
2019-01-24T05:44:15.192Z,93733.02
2019-01-24T05:47:31.572Z,93724.59
2019-01-24T05:50:55.550Z,93733.48
2019-01-24T05:54:19.525Z,93738.38
2019-01-24T05:57:43.676Z,93749.25
2019-01-24T06:08:13.691Z,93762.16
2019-01-24T06:11:37.664Z,93771.56
2019-01-24T06:18:31.215Z,93787.13
2019-01-24T06:22:14.258Z,93787.08
2019-01-24T06:25:38.556Z,93795.13
2019-01-24T06:33:04.495Z,93797.46
2019-01-24T06:36:47.521Z,93801.30
2019-01-24T06:40:32.292Z,93804.67
2019-01-24T06:47:32.238Z,93805.70
2019-01-24T06:50:56.468Z,93805.72
2019-01-24T06:54:20.439Z,93814.91
2019-01-24T06:57:44.424Z,93820.83
2019-01-24T07:01:08.780Z,93816.45
2019-01-24T07:04:32.993Z,93824.66
2019-01-24T07:07:56.974Z,93819.22
2019-01-24T07:11:20.959Z,93823.62
2019-01-24T07:14:45.228Z,93818.42
2019-01-24T07:18:09.206Z,93832.84
2019-01-24T07:28:13.311Z,93837.84
2019-01-24T07:31:37.287Z,93843.83
2019-01-24T07:35:01.299Z,93842.00
2019-01-24T07:38:44.299Z,93842.16
2019-01-24T07:42:08.355Z,93850.13
2019-01-24T07:45:51.882Z,93851.44
2019-01-24T07:49:08.687Z,93856.02
2019-01-24T07:52:32.654Z,93858.81
2019-01-24T07:55:56.626Z,93865.03
2019-01-24T08:02:50.152Z,93870.17
2019-01-24T08:06:14.115Z,93872.49
2019-01-24T08:09:38.097Z,93882.17
2019-01-24T08:13:02.082Z,93888.62
2019-01-24T08:16:26.299Z,93887.89
2019-01-24T08:19:50.275Z,93898.02
2019-01-24T08:23:14.596Z,93895.81
2019-01-24T08:26:38.599Z,93894.74
2019-01-24T08:30:02.681Z,93897.34
2019-01-24T08:33:27.030Z,93896.27
2019-01-24T08:36:50.992Z,93887.81
2019-01-24T08:40:36.097Z,93889.84
2019-01-24T08:44:00.375Z,93897.48
2019-01-24T08:47:17.607Z,93901.00
2019-01-24T08:51:00.713Z,93902.87
2019-01-24T08:54:24.804Z,93904.82
2019-01-24T08:57:49.114Z,93909.09
2019-01-24T09:01:13.149Z,93901.08
2019-01-24T09:04:37.122Z,93909.08
2019-01-24T09:08:20.133Z,93913.42
2019-01-24T09:12:03.193Z,93913.41
2019-01-24T09:19:18.092Z,93920.80
2019-01-24T09:22:42.063Z,93921.81
2019-01-24T09:26:06.121Z,93921.27
2019-01-24T09:29:49.376Z,93929.68
2019-01-24T09:33:13.719Z,93937.38
2019-01-24T09:36:38.012Z,93934.81
2019-01-24T09:40:02.301Z,93942.02
2019-01-24T09:43:45.610Z,93945.16
2019-01-24T09:47:02.584Z,93946.62
2019-01-24T09:54:17.434Z,93944.25
2019-01-24T09:57:41.404Z,93950.95
2019-01-24T10:01:24.794Z,93954.36
2019-01-24T10:04:49.165Z,93957.13
2019-01-24T10:08:13.479Z,93958.37
2019-01-24T10:11:37.456Z,93963.55
2019-01-24T10:14:42.396Z,93961.80
2019-01-24T10:18:25.659Z,93959.31
2019-01-24T10:22:08.712Z,93956.97
2019-01-24T10:25:53.813Z,93957.96
2019-01-24T10:29:18.108Z,93964.61
2019-01-24T10:32:42.087Z,93963.55
2019-01-24T10:36:06.076Z,93967.08
2019-01-24T10:39:30.038Z,93972.27
2019-01-24T10:46:23.532Z,93964.19
2019-01-24T10:49:40.003Z,93969.70
2019-01-24T10:53:04.039Z,93969.01
2019-01-24T10:56:28.051Z,93960.49
2019-01-24T10:59:52.010Z,93964.94
2019-01-24T11:03:16.045Z,93963.68
2019-01-24T11:06:40.048Z,93965.03
2019-01-24T11:20:53.375Z,93972.14
2019-01-24T11:24:17.338Z,93971.73
2019-01-24T11:27:41.300Z,93964.11
2019-01-24T11:34:55.839Z,93960.69
2019-01-24T11:38:19.882Z,93959.42
2019-01-24T11:41:44.105Z,93961.91
2019-01-24T11:45:29.180Z,93968.39
2019-01-24T11:48:44.109Z,93961.38
2019-01-24T11:52:08.188Z,93957.77
2019-01-24T11:55:32.206Z,93956.37
2019-01-24T11:58:56.427Z,93955.51
2019-01-24T12:02:20.407Z,93958.05
2019-01-24T12:05:44.373Z,93954.03
2019-01-24T12:13:17.478Z,93950.72
2019-01-24T12:16:41.784Z,93959.83
2019-01-24T12:20:26.534Z,93954.36
2019-01-24T12:23:50.498Z,93958.59
2019-01-24T12:27:14.468Z,93943.78
2019-01-24T12:30:38.460Z,93942.93
2019-01-24T12:34:02.429Z,93953.38
2019-01-24T12:37:26.389Z,93954.70
2019-01-24T12:40:50.347Z,93951.64
2019-01-24T12:44:33.460Z,93958.91
2019-01-24T12:47:50.141Z,93956.37
2019-01-24T12:50:54.794Z,93954.47
2019-01-24T12:54:00.382Z,93951.30
2019-01-24T12:57:24.453Z,93945.88
2019-01-24T13:00:48.488Z,93950.04
2019-01-24T13:07:42.325Z,93963.82
2019-01-24T13:15:30.675Z,93962.38
2019-01-24T13:18:54.635Z,93970.38
2019-01-24T13:22:18.595Z,93974.78
2019-01-24T13:25:42.580Z,93971.59
2019-01-24T13:29:06.957Z,93972.70
2019-01-24T13:32:30.911Z,93969.55
2019-01-24T13:39:11.701Z,93976.80
2019-01-24T13:42:54.938Z,93980.73
2019-01-24T13:45:59.815Z,93986.03
2019-01-24T13:49:16.938Z,93991.84
2019-01-24T13:56:25.082Z,93997.82
2019-01-24T13:59:29.683Z,94004.98
2019-01-24T14:06:38.340Z,94013.55
2019-01-24T14:10:21.626Z,94005.69
2019-01-24T14:13:45.865Z,94023.03
2019-01-24T14:17:10.179Z,94021.89
2019-01-24T14:20:34.221Z,94019.41
2019-01-24T14:24:10.860Z,94020.53
2019-01-24T14:27:24.693Z,94021.48
2019-01-24T14:30:48.964Z,94024.16
2019-01-24T14:34:31.952Z,94030.20
2019-01-24T14:37:56.172Z,94036.25
2019-01-24T14:41:39.450Z,94034.41
2019-01-24T14:48:47.232Z,94041.09
2019-01-24T14:52:11.536Z,94044.76
2019-01-24T14:55:35.816Z,94049.14
2019-01-24T15:02:42.968Z,94044.20
2019-01-24T15:06:07.029Z,94048.31
2019-01-24T15:09:31.306Z,94050.56
2019-01-24T15:12:55.340Z,94061.28
2019-01-24T15:16:38.427Z,94060.22
2019-01-24T15:20:02.467Z,94058.08
2019-01-24T15:23:26.482Z,94053.50
2019-01-24T15:26:50.782Z,94062.38
2019-01-24T15:30:35.564Z,94061.08
2019-01-24T15:33:59.529Z,94060.05
2019-01-24T15:37:23.504Z,94064.36
2019-01-24T15:44:37.592Z,94070.85
2019-01-24T15:47:54.417Z,94073.80
2019-01-24T15:51:37.661Z,94084.53
2019-01-24T15:55:02.037Z,94081.06
2019-01-24T15:58:26.250Z,94088.63
2019-01-24T16:01:50.527Z,94089.98
2019-01-24T16:05:14.717Z,94094.94
2019-01-24T16:08:38.715Z,94107.52
2019-01-24T16:12:02.730Z,94118.80
2019-01-24T16:15:47.572Z,94126.88
2019-01-24T16:19:32.110Z,94130.54
2019-01-24T16:22:56.497Z,94135.85
2019-01-24T16:26:20.787Z,94130.03
2019-01-24T16:29:45.027Z,94139.66
2019-01-24T16:36:59.196Z,94140.06
2019-01-24T16:40:44.014Z,94149.55
2019-01-24T16:44:08.315Z,94146.68
2019-01-24T16:47:25.273Z,94149.63
2019-01-24T16:50:49.244Z,94153.92
2019-01-24T16:54:32.494Z,94158.66
2019-01-24T16:57:56.738Z,94166.75
2019-01-24T17:01:20.707Z,94170.41
2019-01-24T17:04:44.768Z,94171.80
2019-01-24T17:08:09.109Z,94179.25
2019-01-24T17:11:33.122Z,94174.09
2019-01-24T17:14:57.374Z,94174.62
2019-01-24T17:18:21.445Z,94179.63
2019-01-24T17:21:45.745Z,94183.11
2019-01-24T17:25:30.833Z,94190.92
2019-01-24T17:28:55.118Z,94192.22
2019-01-24T17:32:19.403Z,94200.02
2019-01-24T17:35:43.713Z,94198.77
2019-01-24T17:39:28.777Z,94201.89
2019-01-24T17:42:52.909Z,94200.55
2019-01-24T17:46:35.953Z,94209.18
2019-01-24T17:49:53.107Z,94213.61
2019-01-24T17:56:47.998Z,94220.07
2019-01-24T18:04:02.497Z,94220.42
2019-01-24T18:07:26.868Z,94232.27
2019-01-24T18:11:09.985Z,94236.23
2019-01-24T18:14:34.074Z,94244.31
2019-01-24T18:18:18.342Z,94250.81
2019-01-24T18:21:43.059Z,94245.61
2019-01-24T18:25:07.714Z,94258.61
2019-01-24T18:28:31.693Z,94265.13
2019-01-24T18:31:55.688Z,94259.67
2019-01-24T18:35:19.996Z,94263.85
2019-01-24T18:38:43.998Z,94270.87
2019-01-24T18:41:48.680Z,94266.73
2019-01-24T18:45:33.525Z,94274.00
2019-01-24T18:48:50.102Z,94280.75
2019-01-24T18:55:57.476Z,94286.22
2019-01-24T18:59:22.064Z,94282.58
2019-01-24T19:02:46.449Z,94283.11
2019-01-24T19:06:10.471Z,94286.77
2019-01-24T19:09:34.740Z,94293.78
2019-01-24T19:13:26.450Z,94303.64
2019-01-24T19:16:50.765Z,94310.16
2019-01-24T19:24:24.554Z,94321.33
2019-01-24T19:27:48.873Z,94318.98
2019-01-24T19:34:43.306Z,94325.47
2019-01-24T19:38:07.370Z,94334.03
2019-01-24T19:41:31.668Z,94336.91
2019-01-24T19:44:55.663Z,94335.87
2019-01-24T19:48:12.296Z,94336.38
2019-01-24T19:55:27.302Z,94342.61
2019-01-24T19:58:51.284Z,94344.95
2019-01-24T20:05:58.487Z,94353.25
2019-01-24T20:09:22.482Z,94350.67
2019-01-24T20:12:46.527Z,94354.03
2019-01-24T20:16:10.829Z,94360.00
2019-01-24T20:19:15.457Z,94364.70
2019-01-24T20:22:20.093Z,94368.07
2019-01-24T20:25:28.641Z,94372.23
2019-01-24T20:28:52.939Z,94374.05
2019-01-24T20:32:16.937Z,94371.70
2019-01-24T20:35:43.655Z,94373.80
2019-01-24T20:39:28.692Z,94378.96
2019-01-24T20:46:49.382Z,94383.64
2019-01-24T20:50:34.170Z,94386.23
2019-01-24T20:54:17.226Z,94389.88
2019-01-24T20:57:41.165Z,94392.73
2019-01-24T21:01:24.447Z,94394.56
2019-01-24T21:04:48.733Z,94400.02
2019-01-24T21:08:13.022Z,94400.78
2019-01-24T21:11:37.334Z,94397.69
2019-01-24T21:14:42.272Z,94400.78
2019-01-24T21:17:47.181Z,94401.55
2019-01-24T21:21:11.476Z,94408.05
2019-01-24T21:28:18.415Z,94410.39
2019-01-24T21:31:42.404Z,94410.92
2019-01-24T21:35:27.209Z,94413.76
2019-01-24T21:39:10.441Z,94422.84
2019-01-24T21:42:34.422Z,94437.63
2019-01-24T21:45:58.398Z,94432.66
2019-01-24T21:49:15.480Z,94437.88
2019-01-24T21:52:39.744Z,94438.61
2019-01-24T21:56:03.718Z,94441.47
2019-01-24T21:59:28.021Z,94443.20
2019-01-24T22:07:01.782Z,94439.16
2019-01-24T22:10:46.622Z,94452.87
2019-01-24T22:14:29.689Z,94449.95
2019-01-24T22:21:23.637Z,94459.01
2019-01-24T22:24:47.639Z,94455.90
2019-01-24T22:28:11.939Z,94459.25
2019-01-24T22:31:36.169Z,94469.95
2019-01-24T22:35:00.227Z,94469.92
2019-01-24T22:41:53.495Z,94471.09
2019-01-24T22:45:38.252Z,94461.27
2019-01-24T22:48:55.354Z,94470.91
2019-01-24T22:52:19.677Z,94479.45
2019-01-24T22:55:43.897Z,94468.27
2019-01-24T22:59:07.903Z,94472.16
2019-01-24T23:10:31.190Z,94468.23
2019-01-24T23:13:35.965Z,94470.53
2019-01-24T23:16:59.991Z,94475.18
2019-01-24T23:20:24.002Z,94482.96
2019-01-24T23:23:47.983Z,94483.20
2019-01-24T23:27:12.343Z,94480.83
2019-01-24T23:30:55.459Z,94476.48
2019-01-24T23:34:19.421Z,94472.56
2019-01-24T23:37:43.403Z,94481.61
2019-01-24T23:41:07.368Z,94479.48
2019-01-24T23:44:31.346Z,94481.10
2019-01-24T23:47:48.425Z,94485.91
2019-01-24T23:54:55.327Z,94486.50
2019-01-24T23:58:19.622Z,94482.69
